createdAt,value
2022-12-27T00:00:00.289Z,368.72
2022-12-27T00:01:00.469Z,366.67
2022-12-27T00:02:00.575Z,367.08
2022-12-27T00:03:00.620Z,365.86
2022-12-27T00:04:00.704Z,366.27
2022-12-27T00:05:00.743Z,365.46
2022-12-27T00:06:00.844Z,363.85
2022-12-27T00:07:00.905Z,365.46
2022-12-27T00:08:01.021Z,367.08
2022-12-27T00:09:01.075Z,365.46
2022-12-27T00:10:01.161Z,366.27
2022-12-27T00:11:01.254Z,364.65
2022-12-27T00:12:01.318Z,367.08
2022-12-27T00:13:01.387Z,365.86
2022-12-27T00:14:07.545Z,365.86
2022-12-27T00:15:01.519Z,366.27
2022-12-27T00:16:01.676Z,365.86
2022-12-27T00:17:01.698Z,366.67
2022-12-27T00:18:01.796Z,365.46
2022-12-27T00:19:01.911Z,366.27
2022-12-27T00:20:08.471Z,365.05
2022-12-27T00:21:02.077Z,367.90
2022-12-27T00:22:02.152Z,365.05
2022-12-27T00:23:02.241Z,364.65
2022-12-27T00:24:02.313Z,367.90
2022-12-27T00:25:02.419Z,366.27
2022-12-27T00:26:02.462Z,365.46
2022-12-27T00:27:02.520Z,367.49
2022-12-27T00:28:02.621Z,367.08
2022-12-27T00:29:02.684Z,364.65
2022-12-27T00:30:02.772Z,368.31
2022-12-27T00:31:02.867Z,365.86
2022-12-27T00:32:03.022Z,367.08
2022-12-27T00:33:03.037Z,366.67
2022-12-27T00:34:03.112Z,367.08
2022-12-27T00:35:03.243Z,367.49
2022-12-27T00:36:03.279Z,366.67
2022-12-27T00:37:03.381Z,367.08
2022-12-27T00:38:03.472Z,367.08
2022-12-27T00:39:03.543Z,366.67
2022-12-27T00:40:03.640Z,364.65
2022-12-27T00:41:03.709Z,369.54
2022-12-27T00:42:03.784Z,368.31
2022-12-27T00:43:03.847Z,366.67
2022-12-27T00:44:03.950Z,365.86
2022-12-27T00:45:09.978Z,366.67
2022-12-27T00:46:04.127Z,365.46
2022-12-27T00:47:04.176Z,365.46
2022-12-27T00:48:04.255Z,365.46
2022-12-27T00:49:04.355Z,365.86
2022-12-27T00:50:04.451Z,367.49
2022-12-27T00:51:04.508Z,366.27
2022-12-27T00:52:04.615Z,365.86
2022-12-27T00:53:04.697Z,366.67
2022-12-27T00:54:04.805Z,366.27
2022-12-27T00:55:04.902Z,365.05
2022-12-27T00:56:04.969Z,368.31
2022-12-27T00:57:05.039Z,367.49
2022-12-27T00:58:05.147Z,366.67
2022-12-27T00:59:05.215Z,366.67
2022-12-27T01:00:10.099Z,365.46
2022-12-27T01:01:05.515Z,366.67
2022-12-27T01:02:05.544Z,366.67
2022-12-27T01:03:05.589Z,366.27
2022-12-27T01:04:05.689Z,365.86
2022-12-27T01:05:05.733Z,365.46
2022-12-27T01:06:05.854Z,364.65
2022-12-27T01:07:05.935Z,367.49
2022-12-27T01:08:06.008Z,367.90
2022-12-27T01:09:06.104Z,367.08
2022-12-27T01:10:06.204Z,367.08
2022-12-27T01:11:06.295Z,367.08
2022-12-27T01:12:06.378Z,366.67
2022-12-27T01:13:06.451Z,367.08
2022-12-27T01:14:06.572Z,365.86
2022-12-27T01:15:06.629Z,367.08
2022-12-27T01:16:12.690Z,366.67
2022-12-27T01:17:06.791Z,367.90
2022-12-27T01:18:06.864Z,366.27
2022-12-27T01:19:06.953Z,365.86
2022-12-27T01:20:07.037Z,364.65
2022-12-27T01:21:07.099Z,367.49
2022-12-27T01:22:07.187Z,366.67
2022-12-27T01:23:07.301Z,367.08
2022-12-27T01:24:07.368Z,366.27
2022-12-27T01:25:07.458Z,365.86
2022-12-27T01:26:07.538Z,366.27
2022-12-27T01:27:07.627Z,367.08
2022-12-27T01:28:07.726Z,368.31
2022-12-27T01:29:07.809Z,367.90
2022-12-27T01:30:07.905Z,367.08
2022-12-27T01:31:07.979Z,366.27
2022-12-27T01:32:08.098Z,367.08
2022-12-27T01:33:08.142Z,367.08
2022-12-27T01:34:08.246Z,367.08
2022-12-27T01:35:08.312Z,365.46
2022-12-27T01:36:08.403Z,366.27
2022-12-27T01:37:08.501Z,365.46
2022-12-27T01:38:08.573Z,367.08
2022-12-27T01:39:08.691Z,365.86
2022-12-27T01:40:08.741Z,366.67
2022-12-27T01:41:08.805Z,368.72
2022-12-27T01:42:08.870Z,367.90
2022-12-27T01:43:08.965Z,364.25
2022-12-27T01:44:09.065Z,366.27
2022-12-27T01:45:09.171Z,366.67
2022-12-27T01:46:10.153Z,368.31
2022-12-27T01:47:15.298Z,368.31
2022-12-27T01:48:09.422Z,365.05
2022-12-27T01:49:09.500Z,367.08
2022-12-27T01:50:09.618Z,367.49
2022-12-27T01:51:09.694Z,367.08
2022-12-27T01:52:09.780Z,367.49
2022-12-27T01:53:09.855Z,367.49
2022-12-27T01:54:09.909Z,368.31
2022-12-27T01:55:09.997Z,367.90
2022-12-27T01:56:10.084Z,365.86
2022-12-27T01:57:10.128Z,366.27
2022-12-27T01:58:10.201Z,366.67
2022-12-27T01:59:10.279Z,366.27
2022-12-27T02:00:10.386Z,366.67
2022-12-27T02:01:10.675Z,366.67
2022-12-27T02:02:10.709Z,366.67
2022-12-27T02:03:10.681Z,366.67
2022-12-27T02:04:10.693Z,367.90
2022-12-27T02:05:10.783Z,367.49
2022-12-27T02:06:10.849Z,364.65
2022-12-27T02:07:10.949Z,366.67
2022-12-27T02:08:11.017Z,368.72
2022-12-27T02:09:11.101Z,367.90
2022-12-27T02:10:11.183Z,366.27
2022-12-27T02:11:11.282Z,366.67
2022-12-27T02:12:11.389Z,366.27
2022-12-27T02:13:11.457Z,367.49
2022-12-27T02:14:11.544Z,367.90
2022-12-27T02:15:11.614Z,367.90
2022-12-27T02:16:11.687Z,367.08
2022-12-27T02:17:11.794Z,369.54
2022-12-27T02:18:18.110Z,368.72
2022-12-27T02:19:11.935Z,369.54
2022-12-27T02:20:12.014Z,367.90
2022-12-27T02:21:12.089Z,367.49
2022-12-27T02:22:12.173Z,366.27
2022-12-27T02:23:12.256Z,367.90
2022-12-27T02:24:12.345Z,367.49
2022-12-27T02:25:12.415Z,367.49
2022-12-27T02:26:12.486Z,368.31
2022-12-27T02:27:12.548Z,368.31
2022-12-27T02:28:12.641Z,367.08
2022-12-27T02:29:12.757Z,367.90
2022-12-27T02:30:12.806Z,369.13
2022-12-27T02:31:12.950Z,367.90
2022-12-27T02:32:12.980Z,367.90
2022-12-27T02:33:13.072Z,367.49
2022-12-27T02:34:13.136Z,367.90
2022-12-27T02:35:13.270Z,367.90
2022-12-27T02:36:13.308Z,370.79
2022-12-27T02:37:13.385Z,367.49
2022-12-27T02:38:13.471Z,368.31
2022-12-27T02:39:13.551Z,367.08
2022-12-27T02:40:13.674Z,366.27
2022-12-27T02:41:13.742Z,369.54
2022-12-27T02:42:13.825Z,366.67
2022-12-27T02:43:13.933Z,367.08
2022-12-27T02:44:14.030Z,368.72
2022-12-27T02:45:14.119Z,369.13
2022-12-27T02:46:19.860Z,367.08
2022-12-27T02:47:14.280Z,367.90
2022-12-27T02:48:14.353Z,367.90
2022-12-27T02:49:20.414Z,368.72
2022-12-27T02:50:14.508Z,367.49
2022-12-27T02:51:14.625Z,366.67
2022-12-27T02:52:14.662Z,368.31
2022-12-27T02:53:14.751Z,367.90
2022-12-27T02:54:14.833Z,369.54
2022-12-27T02:55:14.920Z,369.13
2022-12-27T02:56:15.026Z,366.27
2022-12-27T02:57:15.128Z,367.49
2022-12-27T02:58:15.190Z,368.31
2022-12-27T02:59:15.291Z,369.13
2022-12-27T03:00:15.363Z,367.90
2022-12-27T03:01:15.640Z,369.13
2022-12-27T03:02:15.741Z,368.72
2022-12-27T03:03:15.638Z,369.54
2022-12-27T03:04:15.692Z,369.13
2022-12-27T03:05:15.775Z,367.08
2022-12-27T03:06:15.854Z,367.49
2022-12-27T03:07:15.956Z,366.27
2022-12-27T03:08:16.051Z,369.13
2022-12-27T03:09:16.102Z,368.72
2022-12-27T03:10:16.176Z,367.08
2022-12-27T03:11:16.245Z,367.08
2022-12-27T03:12:16.345Z,367.90
2022-12-27T03:13:16.453Z,367.90
2022-12-27T03:14:16.539Z,369.54
2022-12-27T03:15:16.580Z,369.13
2022-12-27T03:16:16.730Z,369.95
2022-12-27T03:17:16.754Z,369.95
2022-12-27T03:18:16.854Z,369.13
2022-12-27T03:19:16.939Z,369.54
2022-12-27T03:20:23.148Z,369.95
2022-12-27T03:21:17.073Z,368.31
2022-12-27T03:22:17.148Z,369.95
2022-12-27T03:23:17.234Z,367.49
2022-12-27T03:24:17.316Z,368.31
2022-12-27T03:25:17.401Z,369.13
2022-12-27T03:26:17.472Z,369.54
2022-12-27T03:27:17.516Z,368.72
2022-12-27T03:28:17.609Z,367.90
2022-12-27T03:29:17.694Z,368.72
2022-12-27T03:30:17.798Z,367.49
2022-12-27T03:31:17.912Z,367.08
2022-12-27T03:32:17.992Z,369.13
2022-12-27T03:33:18.072Z,369.95
2022-12-27T03:34:18.141Z,368.72
2022-12-27T03:35:18.205Z,369.54
2022-12-27T03:36:18.287Z,369.54
2022-12-27T03:37:18.343Z,367.08
2022-12-27T03:38:18.446Z,369.13
2022-12-27T03:39:18.489Z,368.31
2022-12-27T03:40:18.576Z,368.72
2022-12-27T03:41:18.634Z,369.54
2022-12-27T03:42:18.725Z,369.13
2022-12-27T03:43:18.826Z,369.95
2022-12-27T03:44:18.872Z,367.49
2022-12-27T03:45:18.943Z,371.20
2022-12-27T03:46:19.031Z,371.20
2022-12-27T03:47:19.105Z,366.67
2022-12-27T03:48:19.171Z,369.13
2022-12-27T03:49:19.279Z,369.95
2022-12-27T03:50:19.321Z,371.20
2022-12-27T03:51:25.427Z,367.90
2022-12-27T03:52:19.485Z,369.13
2022-12-27T03:53:19.553Z,367.90
2022-12-27T03:54:19.675Z,369.95
2022-12-27T03:55:19.737Z,369.95
2022-12-27T03:56:19.838Z,368.31
2022-12-27T03:57:19.895Z,369.95
2022-12-27T03:58:20.007Z,368.31
2022-12-27T03:59:20.083Z,370.79
2022-12-27T04:00:20.167Z,369.95
2022-12-27T04:01:20.322Z,369.95
2022-12-27T04:02:20.589Z,368.72
2022-12-27T04:03:20.535Z,369.54
2022-12-27T04:04:20.507Z,368.72
2022-12-27T04:05:20.573Z,369.13
2022-12-27T04:06:20.652Z,367.08
2022-12-27T04:07:20.732Z,368.31
2022-12-27T04:08:20.802Z,367.49
2022-12-27T04:09:20.878Z,369.95
2022-12-27T04:10:20.987Z,371.20
2022-12-27T04:11:21.074Z,368.72
2022-12-27T04:12:21.119Z,369.13
2022-12-27T04:13:21.194Z,370.37
2022-12-27T04:14:21.256Z,369.54
2022-12-27T04:15:21.359Z,369.95
2022-12-27T04:16:21.455Z,367.49
2022-12-27T04:17:21.525Z,370.37
2022-12-27T04:18:21.595Z,369.95
2022-12-27T04:19:21.680Z,370.37
2022-12-27T04:20:21.760Z,369.95
2022-12-27T04:21:21.850Z,371.20
2022-12-27T04:22:28.180Z,370.79
2022-12-27T04:23:22.054Z,369.13
2022-12-27T04:24:22.102Z,370.37
2022-12-27T04:25:22.182Z,370.79
2022-12-27T04:26:22.277Z,367.90
2022-12-27T04:27:22.356Z,370.79
2022-12-27T04:28:22.495Z,369.54
2022-12-27T04:29:22.543Z,369.95
2022-12-27T04:30:22.620Z,369.54
2022-12-27T04:31:22.760Z,369.95
2022-12-27T04:32:22.757Z,369.54
2022-12-27T04:33:22.855Z,367.90
2022-12-27T04:34:22.985Z,369.54
2022-12-27T04:35:23.047Z,367.90
2022-12-27T04:36:23.131Z,368.72
2022-12-27T04:37:23.234Z,369.54
2022-12-27T04:38:23.314Z,367.08
2022-12-27T04:39:23.418Z,367.49
2022-12-27T04:40:23.511Z,369.54
2022-12-27T04:41:23.559Z,369.95
2022-12-27T04:42:23.639Z,368.31
2022-12-27T04:43:23.709Z,368.31
2022-12-27T04:44:23.765Z,367.90
2022-12-27T04:45:23.831Z,369.95
2022-12-27T04:46:23.955Z,370.37
2022-12-27T04:47:23.997Z,369.95
2022-12-27T04:48:24.062Z,371.20
2022-12-27T04:49:24.138Z,369.54
2022-12-27T04:50:24.216Z,371.20
2022-12-27T04:51:24.308Z,369.54
2022-12-27T04:52:24.419Z,371.20
2022-12-27T04:53:30.446Z,372.04
2022-12-27T04:54:24.538Z,370.79
2022-12-27T04:55:24.627Z,371.62
2022-12-27T04:56:24.697Z,369.95
2022-12-27T04:57:24.803Z,367.08
2022-12-27T04:58:24.876Z,367.90
2022-12-27T04:59:24.951Z,371.20
2022-12-27T05:00:25.028Z,367.90
2022-12-27T05:01:25.154Z,368.72
2022-12-27T05:02:25.380Z,369.95
2022-12-27T05:03:25.336Z,367.49
2022-12-27T05:04:25.373Z,368.31
2022-12-27T05:05:25.484Z,368.72
2022-12-27T05:06:25.568Z,370.37
2022-12-27T05:07:25.636Z,369.13
2022-12-27T05:08:25.732Z,369.54
2022-12-27T05:09:25.790Z,370.79
2022-12-27T05:10:25.875Z,371.20
2022-12-27T05:11:25.935Z,369.54
2022-12-27T05:12:26.017Z,369.54
2022-12-27T05:13:26.099Z,369.13
2022-12-27T05:14:26.178Z,369.95
2022-12-27T05:15:26.229Z,369.54
2022-12-27T05:16:26.335Z,369.95
2022-12-27T05:17:26.353Z,369.95
2022-12-27T05:18:26.452Z,369.95
2022-12-27T05:19:26.568Z,369.54
2022-12-27T05:20:26.668Z,367.90
2022-12-27T05:21:26.706Z,367.90
2022-12-27T05:22:26.798Z,369.54
2022-12-27T05:23:26.873Z,370.79
2022-12-27T05:24:33.216Z,369.54
2022-12-27T05:25:27.034Z,368.72
2022-12-27T05:26:27.107Z,368.31
2022-12-27T05:27:27.187Z,367.49
2022-12-27T05:28:27.294Z,367.08
2022-12-27T05:29:27.364Z,369.13
2022-12-27T05:30:27.462Z,368.31
2022-12-27T05:31:27.567Z,368.31
2022-12-27T05:32:27.615Z,371.20
2022-12-27T05:33:27.699Z,369.54
2022-12-27T05:34:27.804Z,370.37
2022-12-27T05:35:27.874Z,368.31
2022-12-27T05:36:27.992Z,370.79
2022-12-27T05:37:28.043Z,368.72
2022-12-27T05:38:28.132Z,368.31
2022-12-27T05:39:28.219Z,367.90
2022-12-27T05:40:28.287Z,367.08
2022-12-27T05:41:28.355Z,369.54
2022-12-27T05:42:28.443Z,368.31
2022-12-27T05:43:28.525Z,369.95
2022-12-27T05:44:28.590Z,370.79
2022-12-27T05:45:28.678Z,369.54
2022-12-27T05:46:28.787Z,369.13
2022-12-27T05:47:28.857Z,368.72
2022-12-27T05:48:28.904Z,369.95
2022-12-27T05:49:28.964Z,369.13
2022-12-27T05:50:29.051Z,369.13
2022-12-27T05:51:29.137Z,368.72
2022-12-27T05:52:29.208Z,367.49
2022-12-27T05:53:29.280Z,368.31
2022-12-27T05:54:29.368Z,367.90
2022-12-27T05:55:35.473Z,369.13
2022-12-27T05:56:29.565Z,368.31
2022-12-27T05:57:29.653Z,367.90
2022-12-27T05:58:29.751Z,368.72
2022-12-27T05:59:29.820Z,367.90
2022-12-27T06:00:29.930Z,367.49
2022-12-27T06:01:30.168Z,367.08
2022-12-27T06:02:30.315Z,369.13
2022-12-27T06:03:30.308Z,368.72
2022-12-27T06:04:30.308Z,368.31
2022-12-27T06:05:30.349Z,368.31
2022-12-27T06:06:30.448Z,366.67
2022-12-27T06:07:30.525Z,368.72
2022-12-27T06:08:30.587Z,367.08
2022-12-27T06:09:30.690Z,367.90
2022-12-27T06:10:30.755Z,367.08
2022-12-27T06:11:30.843Z,369.54
2022-12-27T06:12:30.951Z,368.31
2022-12-27T06:13:31.026Z,368.31
2022-12-27T06:14:31.112Z,367.90
2022-12-27T06:15:31.216Z,368.31
2022-12-27T06:16:31.309Z,369.13
2022-12-27T06:17:31.372Z,368.31
2022-12-27T06:18:31.456Z,368.72
2022-12-27T06:19:31.554Z,369.13
2022-12-27T06:20:31.663Z,367.90
2022-12-27T06:21:31.731Z,367.49
2022-12-27T06:22:31.812Z,366.67
2022-12-27T06:23:31.903Z,366.67
2022-12-27T06:24:32.002Z,368.72
2022-12-27T06:25:32.084Z,367.90
2022-12-27T06:26:38.248Z,367.49
2022-12-27T06:27:32.250Z,367.08
2022-12-27T06:28:32.316Z,366.67
2022-12-27T06:29:32.445Z,366.67
2022-12-27T06:30:36.159Z,366.67
2022-12-27T06:31:32.592Z,367.90
2022-12-27T06:32:32.673Z,367.49
2022-12-27T06:33:32.736Z,367.08
2022-12-27T06:34:32.822Z,366.27
2022-12-27T06:35:32.910Z,365.86
2022-12-27T06:36:32.998Z,367.90
2022-12-27T06:37:33.065Z,366.27
2022-12-27T06:38:33.162Z,367.08
2022-12-27T06:39:33.249Z,365.86
2022-12-27T06:40:33.307Z,368.31
2022-12-27T06:41:33.393Z,367.49
2022-12-27T06:42:33.458Z,367.08
2022-12-27T06:43:33.547Z,366.67
2022-12-27T06:44:33.616Z,365.86
2022-12-27T06:45:33.727Z,367.08
2022-12-27T06:46:33.783Z,367.08
2022-12-27T06:47:33.847Z,365.86
2022-12-27T06:48:33.938Z,365.46
2022-12-27T06:49:34.036Z,365.46
2022-12-27T06:50:34.090Z,367.90
2022-12-27T06:51:34.159Z,366.67
2022-12-27T06:52:34.241Z,366.67
2022-12-27T06:53:34.343Z,365.46
2022-12-27T06:54:34.400Z,365.05
2022-12-27T06:55:34.490Z,366.27
2022-12-27T06:56:34.560Z,365.05
2022-12-27T06:57:40.631Z,365.46
2022-12-27T06:58:34.731Z,367.49
2022-12-27T06:59:34.817Z,367.08
2022-12-27T07:00:34.898Z,367.08
2022-12-27T07:01:35.070Z,364.65
2022-12-27T07:02:35.174Z,367.08
2022-12-27T07:03:35.143Z,367.90
2022-12-27T07:04:35.215Z,366.27
2022-12-27T07:05:35.314Z,365.46
2022-12-27T07:06:35.417Z,367.49
2022-12-27T07:07:35.581Z,366.27
2022-12-27T07:08:35.588Z,365.46
2022-12-27T07:09:35.644Z,365.86
2022-12-27T07:10:35.703Z,366.27
2022-12-27T07:11:35.782Z,365.86
2022-12-27T07:12:37.011Z,364.25
2022-12-27T07:13:36.015Z,369.13
2022-12-27T07:14:36.067Z,365.46
2022-12-27T07:15:36.139Z,365.05
2022-12-27T07:16:36.479Z,366.27
2022-12-27T07:17:36.301Z,365.46
2022-12-27T07:18:36.368Z,365.86
2022-12-27T07:19:36.482Z,367.08
2022-12-27T07:20:36.517Z,365.46
2022-12-27T07:21:36.650Z,364.25
2022-12-27T07:22:36.715Z,365.86
2022-12-27T07:23:36.808Z,365.46
2022-12-27T07:24:36.894Z,365.05
2022-12-27T07:25:36.998Z,367.08
2022-12-27T07:26:37.075Z,365.05
2022-12-27T07:27:37.139Z,364.25
2022-12-27T07:28:43.206Z,365.05
2022-12-27T07:29:43.511Z,367.08
2022-12-27T07:30:37.377Z,365.46
2022-12-27T07:31:37.504Z,366.27
2022-12-27T07:32:37.549Z,366.67
2022-12-27T07:33:37.635Z,364.25
2022-12-27T07:34:37.746Z,366.27
2022-12-27T07:35:43.463Z,365.46
2022-12-27T07:36:37.877Z,367.90
2022-12-27T07:37:37.977Z,364.25
2022-12-27T07:38:38.019Z,363.85
2022-12-27T07:39:38.122Z,365.05
2022-12-27T07:40:38.195Z,364.65
2022-12-27T07:41:38.301Z,365.05
2022-12-27T07:42:38.368Z,364.65
2022-12-27T07:43:38.482Z,365.86
2022-12-27T07:44:38.548Z,366.67
2022-12-27T07:45:38.660Z,366.27
2022-12-27T07:46:38.704Z,365.05
2022-12-27T07:47:38.786Z,364.25
2022-12-27T07:48:38.886Z,364.65
2022-12-27T07:49:38.986Z,364.65
2022-12-27T07:50:39.022Z,365.05
2022-12-27T07:51:39.106Z,364.25
2022-12-27T07:52:39.172Z,364.25
2022-12-27T07:53:39.259Z,364.65
2022-12-27T07:54:39.344Z,365.46
2022-12-27T07:55:39.446Z,364.65
2022-12-27T07:56:39.515Z,363.45
2022-12-27T07:57:39.628Z,363.85
2022-12-27T07:58:39.680Z,364.65
2022-12-27T07:59:45.726Z,364.25
2022-12-27T08:00:39.853Z,365.46
2022-12-27T08:01:39.990Z,363.05
2022-12-27T08:02:40.023Z,363.85
2022-12-27T08:03:40.184Z,364.65
2022-12-27T08:04:40.176Z,363.85
2022-12-27T08:05:40.262Z,367.08
2022-12-27T08:06:40.365Z,364.25
2022-12-27T08:07:40.449Z,367.90
2022-12-27T08:08:40.552Z,363.85
2022-12-27T08:09:40.634Z,366.27
2022-12-27T08:10:40.722Z,363.45
2022-12-27T08:11:40.814Z,364.25
2022-12-27T08:12:40.856Z,364.25
2022-12-27T08:13:40.953Z,363.85
2022-12-27T08:14:40.999Z,366.27
2022-12-27T08:15:41.089Z,366.27
2022-12-27T08:16:41.193Z,365.05
2022-12-27T08:17:41.280Z,363.05
2022-12-27T08:18:41.323Z,365.46
2022-12-27T08:19:41.419Z,364.25
2022-12-27T08:20:41.504Z,362.25
2022-12-27T08:21:41.590Z,365.46
2022-12-27T08:22:41.711Z,362.65
2022-12-27T08:23:41.765Z,363.45
2022-12-27T08:24:41.842Z,363.85
2022-12-27T08:25:48.396Z,363.45
2022-12-27T08:26:42.032Z,362.25
2022-12-27T08:27:42.132Z,365.46
2022-12-27T08:28:42.258Z,363.05
2022-12-27T08:29:42.320Z,362.65
2022-12-27T08:30:48.426Z,363.45
2022-12-27T08:31:42.451Z,363.05
2022-12-27T08:32:42.511Z,363.45
2022-12-27T08:33:42.629Z,363.05
2022-12-27T08:34:42.680Z,362.25
2022-12-27T08:35:52.707Z,363.05
2022-12-27T08:36:55.025Z,362.65
2022-12-27T08:37:42.939Z,364.65
2022-12-27T08:38:42.999Z,364.25
2022-12-27T08:39:43.077Z,363.85
2022-12-27T08:40:43.126Z,364.65
2022-12-27T08:41:43.223Z,364.25
2022-12-27T08:42:43.307Z,363.05
2022-12-27T08:43:43.385Z,363.85
2022-12-27T08:44:43.480Z,363.45
2022-12-27T08:45:43.573Z,362.65
2022-12-27T08:46:43.740Z,363.05
2022-12-27T08:47:43.727Z,363.05
2022-12-27T08:48:43.800Z,362.25
2022-12-27T08:49:43.884Z,362.65
2022-12-27T08:50:43.999Z,362.25
2022-12-27T08:51:44.089Z,361.07
2022-12-27T08:52:44.171Z,364.25
2022-12-27T08:53:44.256Z,363.05
2022-12-27T08:54:44.354Z,362.65
2022-12-27T08:55:44.427Z,361.07
2022-12-27T08:56:44.540Z,361.07
2022-12-27T08:57:44.605Z,362.25
2022-12-27T08:58:44.698Z,363.05
2022-12-27T08:59:44.762Z,361.46
2022-12-27T09:00:44.835Z,362.65
2022-12-27T09:01:51.446Z,363.05
2022-12-27T09:02:45.159Z,360.28
2022-12-27T09:03:45.111Z,363.45
2022-12-27T09:04:45.193Z,361.07
2022-12-27T09:05:45.287Z,361.86
2022-12-27T09:06:45.377Z,365.46
2022-12-27T09:07:45.484Z,363.45
2022-12-27T09:08:45.529Z,361.86
2022-12-27T09:09:45.621Z,361.07
2022-12-27T09:10:45.705Z,361.86
2022-12-27T09:11:45.783Z,362.65
2022-12-27T09:12:45.900Z,360.28
2022-12-27T09:13:46.014Z,363.05
2022-12-27T09:14:46.032Z,362.65
2022-12-27T09:15:46.158Z,362.25
2022-12-27T09:16:46.222Z,362.25
2022-12-27T09:17:46.329Z,361.86
2022-12-27T09:18:46.424Z,361.86
2022-12-27T09:19:46.505Z,363.45
2022-12-27T09:20:46.578Z,361.86
2022-12-27T09:21:46.664Z,360.67
2022-12-27T09:22:46.748Z,361.46
2022-12-27T09:23:46.866Z,364.25
2022-12-27T09:24:46.943Z,362.25
2022-12-27T09:25:47.080Z,361.07
2022-12-27T09:26:47.142Z,363.45
2022-12-27T09:27:47.212Z,361.86
2022-12-27T09:28:47.296Z,361.46
2022-12-27T09:29:48.543Z,360.67
2022-12-27T09:30:47.510Z,359.89
2022-12-27T09:31:47.498Z,362.65
2022-12-27T09:32:53.541Z,359.49
2022-12-27T09:33:47.653Z,362.65
2022-12-27T09:34:47.740Z,359.89
2022-12-27T09:35:47.821Z,361.07
2022-12-27T09:36:47.908Z,359.89
2022-12-27T09:37:48.026Z,362.65
2022-12-27T09:38:48.053Z,362.25
2022-12-27T09:39:48.144Z,360.67
2022-12-27T09:40:48.226Z,361.86
2022-12-27T09:43:01.991Z,360.67
2022-12-27T09:43:48.482Z,361.07
2022-12-27T09:44:48.526Z,362.65
2022-12-27T09:45:48.633Z,361.46
2022-12-27T09:46:48.711Z,362.25
2022-12-27T09:47:48.777Z,360.28
2022-12-27T09:48:48.855Z,358.71
2022-12-27T09:49:48.939Z,360.67
2022-12-27T09:50:48.998Z,357.55
2022-12-27T09:51:49.090Z,359.89
2022-12-27T09:52:49.163Z,360.67
2022-12-27T09:53:49.251Z,358.33
2022-12-27T09:54:49.329Z,357.55
2022-12-27T09:55:49.410Z,359.10
2022-12-27T09:57:18.402Z,361.07
2022-12-27T09:57:49.599Z,361.07
2022-12-27T09:58:50.462Z,360.28
2022-12-27T09:59:49.749Z,358.33
2022-12-27T10:00:49.851Z,359.49
2022-12-27T10:01:50.022Z,358.71
2022-12-27T10:02:50.053Z,357.94
2022-12-27T10:03:56.524Z,358.33
2022-12-27T10:05:19.213Z,358.33
2022-12-27T10:05:56.079Z,359.10
2022-12-27T10:06:50.367Z,359.89
2022-12-27T10:07:50.413Z,359.10
2022-12-27T10:08:50.495Z,357.55
2022-12-27T10:09:50.560Z,357.55
2022-12-27T10:10:50.642Z,358.33
2022-12-27T10:11:50.757Z,357.94
2022-12-27T10:12:50.820Z,359.10
2022-12-27T10:13:50.910Z,358.33
2022-12-27T10:14:50.999Z,357.55
2022-12-27T10:15:51.179Z,359.89
2022-12-27T10:16:51.199Z,357.16
2022-12-27T10:17:53.528Z,357.55
2022-12-27T10:18:51.379Z,357.94
2022-12-27T10:19:51.470Z,359.10
2022-12-27T10:20:51.577Z,357.16
2022-12-27T10:21:51.620Z,357.94
2022-12-27T10:22:51.714Z,358.71
2022-12-27T10:23:51.801Z,357.55
2022-12-27T10:24:51.843Z,356.39
2022-12-27T10:25:51.926Z,357.94
2022-12-27T10:26:51.999Z,358.33
2022-12-27T10:27:52.103Z,356.78
2022-12-27T10:28:56.811Z,358.33
2022-12-27T10:29:52.284Z,356.01
2022-12-27T10:30:52.386Z,357.94
2022-12-27T10:31:52.389Z,355.24
2022-12-27T10:32:52.484Z,356.78
2022-12-27T10:33:52.597Z,357.16
2022-12-27T10:34:58.642Z,356.01
2022-12-27T10:35:52.736Z,357.16
2022-12-27T10:36:52.804Z,357.55
2022-12-27T10:37:52.883Z,357.55
2022-12-27T10:38:52.987Z,358.33
2022-12-27T10:39:53.081Z,356.78
2022-12-27T10:40:53.146Z,357.94
2022-12-27T10:41:53.215Z,355.24
2022-12-27T10:42:53.265Z,355.63
2022-12-27T10:43:53.358Z,355.24
2022-12-27T10:44:53.438Z,354.86
2022-12-27T10:45:53.554Z,356.78
2022-12-27T10:46:53.639Z,354.86
2022-12-27T10:47:53.689Z,356.78
2022-12-27T10:49:20.204Z,356.78
2022-12-27T10:49:53.843Z,356.01
2022-12-27T10:50:53.928Z,354.86
2022-12-27T10:51:54.029Z,357.16
2022-12-27T10:52:57.532Z,355.63
2022-12-27T10:53:54.188Z,356.01
2022-12-27T10:54:54.260Z,355.24
2022-12-27T10:55:54.418Z,356.01
2022-12-27T10:56:54.444Z,357.94
2022-12-27T10:57:54.516Z,354.48
2022-12-27T10:58:58.867Z,354.48
2022-12-27T10:59:54.659Z,356.01
2022-12-27T11:00:54.911Z,357.55
2022-12-27T11:01:54.905Z,355.24
2022-12-27T11:02:55.037Z,356.78
2022-12-27T11:03:54.989Z,357.55
2022-12-27T11:04:55.041Z,356.78
2022-12-27T11:06:01.106Z,358.33
2022-12-27T11:06:55.190Z,356.39
2022-12-27T11:07:55.287Z,356.78
2022-12-27T11:08:55.402Z,357.16
2022-12-27T11:09:55.479Z,354.86
2022-12-27T11:10:55.514Z,356.01
2022-12-27T11:11:55.597Z,357.16
2022-12-27T11:12:55.685Z,357.55
2022-12-27T11:13:55.770Z,356.39
2022-12-27T11:14:55.851Z,356.01
2022-12-27T11:15:58.762Z,357.55
2022-12-27T11:16:56.001Z,355.63
2022-12-27T11:17:56.084Z,354.48
2022-12-27T11:18:56.158Z,355.63
2022-12-27T11:19:56.221Z,357.16
2022-12-27T11:20:56.304Z,356.78
2022-12-27T11:21:56.415Z,356.01
2022-12-27T11:22:56.459Z,355.63
2022-12-27T11:23:56.560Z,356.78
2022-12-27T11:24:56.651Z,356.01
2022-12-27T11:25:56.710Z,357.16
2022-12-27T11:26:56.934Z,354.86
2022-12-27T11:27:57.416Z,354.86
2022-12-27T11:28:56.943Z,357.16
2022-12-27T11:29:57.026Z,356.01
2022-12-27T11:30:57.123Z,355.24
2022-12-27T11:31:57.233Z,354.48
2022-12-27T11:32:57.299Z,354.86
2022-12-27T11:33:57.347Z,354.10
2022-12-27T11:34:57.411Z,357.16
2022-12-27T11:35:57.494Z,355.63
2022-12-27T11:37:03.534Z,354.48
2022-12-27T11:37:57.690Z,356.01
2022-12-27T11:38:57.743Z,355.24
2022-12-27T11:39:57.810Z,354.10
2022-12-27T11:40:57.895Z,357.16
2022-12-27T11:41:57.988Z,354.48
2022-12-27T11:42:58.067Z,356.39
2022-12-27T11:43:58.157Z,356.01
2022-12-27T11:44:58.233Z,358.71
2022-12-27T11:45:58.337Z,357.55
2022-12-27T11:46:59.476Z,354.10
2022-12-27T11:47:58.516Z,358.33
2022-12-27T11:48:58.619Z,355.63
2022-12-27T11:49:58.648Z,357.16
2022-12-27T11:50:58.717Z,355.63
2022-12-27T11:51:58.793Z,355.24
2022-12-27T11:52:58.896Z,358.33
2022-12-27T11:53:58.980Z,355.63
2022-12-27T11:54:59.088Z,354.48
2022-12-27T11:55:59.135Z,353.72
2022-12-27T11:56:59.224Z,356.78
2022-12-27T11:57:59.332Z,354.86
2022-12-27T11:58:59.414Z,355.63
2022-12-27T11:59:59.514Z,356.01
2022-12-27T12:01:05.297Z,356.01
2022-12-27T12:01:59.793Z,356.01
2022-12-27T12:02:59.912Z,352.97
2022-12-27T12:03:59.892Z,356.01
2022-12-27T12:04:59.929Z,356.78
2022-12-27T12:06:00.011Z,356.39
2022-12-27T12:07:00.093Z,355.63
2022-12-27T12:08:06.161Z,356.78
2022-12-27T12:09:00.291Z,354.48
2022-12-27T12:10:00.332Z,355.24
2022-12-27T12:11:00.431Z,355.24
2022-12-27T12:12:00.519Z,356.78
2022-12-27T12:13:00.569Z,356.78
2022-12-27T12:14:00.891Z,354.86
2022-12-27T12:15:00.739Z,355.63
2022-12-27T12:16:00.824Z,355.63
2022-12-27T12:17:01.555Z,356.78
2022-12-27T12:18:01.020Z,355.63
2022-12-27T12:19:01.068Z,355.24
2022-12-27T12:20:01.167Z,355.63
2022-12-27T12:21:01.252Z,356.78
2022-12-27T12:22:01.343Z,353.35
2022-12-27T12:23:01.428Z,356.39
2022-12-27T12:24:01.545Z,354.48
2022-12-27T12:25:01.573Z,356.01
2022-12-27T12:26:01.666Z,356.01
2022-12-27T12:27:01.747Z,355.24
2022-12-27T12:28:01.825Z,356.39
2022-12-27T12:29:01.927Z,356.01
2022-12-27T12:30:02.049Z,355.24